sensor_id;sensor_type;location;lat;lon;timestamp;pressure;altitude;pressure_sealevel;temperature
74043;BMP280;62384;53.600;10.040;2023-01-10T00:00:24;1093.13;;;7.56
74043;BMP280;62384;53.600;10.040;2023-01-10T00:02:50;1753.47;;;7.53
74043;BMP280;62384;53.600;10.040;2023-01-10T00:05:17;1753.63;;;7.51
74043;BMP280;62384;53.600;10.040;2023-01-10T00:07:42;2083.53;;;7.54
74043;BMP280;62384;53.600;10.040;2023-01-10T00:10:08;2744.25;;;7.48
74043;BMP280;62384;53.600;10.040;2023-01-10T00:12:34;2413.72;;;7.53
74043;BMP280;62384;53.600;10.040;2023-01-10T00:15:18;2743.66;;;7.57
74043;BMP280;62384;53.600;10.040;2023-01-10T00:17:43;2743.78;;;7.55
74043;BMP280;62384;53.600;10.040;2023-01-10T00:20:09;3074.25;;;7.52
74043;BMP280;62384;53.600;10.040;2023-01-10T00:22:34;3074.09;;;7.54
74043;BMP280;62384;53.600;10.040;2023-01-10T00:25:00;3404.69;;;7.48
74043;BMP280;62384;53.600;10.040;2023-01-10T00:27:25;3404.59;;;7.50
74043;BMP280;62384;53.600;10.040;2023-01-10T00:29:51;3074.09;;;7.54
74043;BMP280;62384;53.600;10.040;2023-01-10T00:32:17;3734.94;;;7.49
74043;BMP280;62384;53.600;10.040;2023-01-10T00:34:43;3075.53;;;7.30
74043;BMP280;62384;53.600;10.040;2023-01-10T00:37:08;3404.72;;;7.48
74043;BMP280;62384;53.600;10.040;2023-01-10T00:39:33;3404.75;;;7.47
74043;BMP280;62384;53.600;10.040;2023-01-10T00:41:58;4065.50;;;7.44
74043;BMP280;62384;53.600;10.040;2023-01-10T00:44:44;5387.19;;;7.41
74043;BMP280;62384;53.600;10.040;2023-01-10T00:47:12;5056.56;;;7.47
74043;BMP280;62384;53.600;10.040;2023-01-10T00:49:38;5056.59;;;7.47
74043;BMP280;62384;53.600;10.040;2023-01-10T00:52:03;5056.53;;;7.49
74043;BMP280;62384;53.600;10.040;2023-01-10T00:54:29;5056.38;;;7.54
74043;BMP280;62384;53.600;10.040;2023-01-10T00:56:54;5717.41;;;7.58
74043;BMP280;62384;53.600;10.040;2023-01-10T00:59:20;6709.38;;;7.57
74043;BMP280;62384;53.600;10.040;2023-01-10T01:01:45;7370.91;;;7.59
74043;BMP280;62384;53.600;10.040;2023-01-10T01:04:11;8032.59;;;7.59
74043;BMP280;62384;53.600;10.040;2023-01-10T01:06:36;8363.28;;;7.50
74043;BMP280;62384;53.600;10.040;2023-01-10T01:09:01;8363.28;;;7.50
74043;BMP280;62384;53.600;10.040;2023-01-10T01:11:26;8694.13;;;7.48
74043;BMP280;62384;53.600;10.040;2023-01-10T01:13:52;9356.13;;;7.51
74043;BMP280;62384;53.600;10.040;2023-01-10T01:16:18;8363.34;;;7.52
74043;BMP280;62384;53.600;10.040;2023-01-10T01:18:43;8694.31;;;7.54
74043;BMP280;62384;53.600;10.040;2023-01-10T01:21:08;8694.06;;;7.46
74043;BMP280;62384;53.600;10.040;2023-01-10T01:23:34;8694.00;;;7.44
74043;BMP280;62384;53.600;10.040;2023-01-10T01:25:59;9686.38;;;7.34
74043;BMP280;62384;53.600;10.040;2023-01-10T01:28:25;9686.28;;;7.32
74043;BMP280;62384;53.600;10.040;2023-01-10T01:30:50;9024.25;;;7.26
74043;BMP280;62384;53.600;10.040;2023-01-10T01:33:16;8362.44;;;7.19
74043;BMP280;62384;53.600;10.040;2023-01-10T01:35:42;8031.63;;;7.12
74043;BMP280;62384;53.600;10.040;2023-01-10T01:38:11;7370.41;;;7.11
74043;BMP280;62384;53.600;10.040;2023-01-10T01:40:37;7370.34;;;7.05
74043;BMP280;62384;53.600;10.040;2023-01-10T01:43:04;7039.81;;;7.00
74043;BMP280;62384;53.600;10.040;2023-01-10T01:45:34;7039.78;;;6.97
74043;BMP280;62384;53.600;10.040;2023-01-10T01:48:07;7370.31;;;7.04
74043;BMP280;62384;53.600;10.040;2023-01-10T01:50:39;7700.81;;;7.01
74043;BMP280;62384;53.600;10.040;2023-01-10T01:53:10;8362.03;;;7.04
74043;BMP280;62384;53.600;10.040;2023-01-10T01:55:37;8362.00;;;7.03
74043;BMP280;62384;53.600;10.040;2023-01-10T01:58:08;8692.63;;;7.01
74043;BMP280;62384;53.600;10.040;2023-01-10T02:00:34;8692.69;;;7.03
74043;BMP280;62384;53.600;10.040;2023-01-10T02:03:00;9354.28;;;7.07
74043;BMP280;62384;53.600;10.040;2023-01-10T02:05:26;10346.78;;;7.08
74043;BMP280;62384;53.600;10.040;2023-01-10T02:07:54;10678.03;;;7.13
74043;BMP280;62384;53.600;10.040;2023-01-10T02:12:52;10015.84;;;7.06
74043;BMP280;62384;53.600;10.040;2023-01-10T02:15:18;10677.38;;;7.03
74043;BMP280;62384;53.600;10.040;2023-01-10T02:17:47;11670.25;;;7.02
74043;BMP280;62384;53.600;10.040;2023-01-10T02:20:15;12001.47;;;7.04
74043;BMP280;62384;53.600;10.040;2023-01-10T02:26:03;12333.03;;;7.09
74043;BMP280;62384;53.600;10.040;2023-01-10T02:31:32;12332.09;;;6.99
74043;BMP280;62384;53.600;10.040;2023-01-10T02:37:16;11669.84;;;6.97
74043;BMP280;62384;53.600;10.040;2023-01-10T02:40:08;12663.47;;;7.02
74043;BMP280;62384;53.600;10.040;2023-01-10T02:45:28;12993.44;;;6.90
74043;BMP280;62384;53.600;10.040;2023-01-10T02:47:55;13326.03;;;7.04
74043;BMP280;62384;53.600;10.040;2023-01-10T02:50:28;13657.25;;;7.03
74043;BMP280;62384;53.600;10.040;2023-01-10T02:55:27;13988.34;;;7.02
74043;BMP280;62384;53.600;10.040;2023-01-10T03:00:45;14319.69;;;7.02
74043;BMP280;62384;53.600;10.040;2023-01-10T03:03:39;14319.38;;;6.99
74043;BMP280;62384;53.600;10.040;2023-01-10T03:06:21;13988.19;;;7.00
74043;BMP280;62384;53.600;10.040;2023-01-10T03:09:15;14319.19;;;6.98
74043;BMP280;62384;53.600;10.040;2023-01-10T03:11:45;12993.44;;;6.90
74043;BMP280;62384;53.600;10.040;2023-01-10T03:14:23;12993.97;;;6.95
74043;BMP280;62384;53.600;10.040;2023-01-10T03:16:52;13325.44;;;6.98
74043;BMP280;62384;53.600;10.040;2023-01-10T03:19:21;13325.34;;;6.97
74043;BMP280;62384;53.600;10.040;2023-01-10T03:21:48;13657.31;;;7.04
74043;BMP280;62384;53.600;10.040;2023-01-10T03:25:04;13657.06;;;7.02
74043;BMP280;62384;53.600;10.040;2023-01-10T03:30:05;13987.75;;;6.97
74043;BMP280;62384;53.600;10.040;2023-01-10T03:32:32;13986.81;;;6.89
74043;BMP280;62384;53.600;10.040;2023-01-10T03:34:59;12994.25;;;6.98
74043;BMP280;62384;53.600;10.040;2023-01-10T03:37:34;13656.22;;;6.94
74043;BMP280;62384;53.600;10.040;2023-01-10T03:40:24;12993.38;;;6.90
74043;BMP280;62384;53.600;10.040;2023-01-10T03:43:14;12660.25;;;6.68
74043;BMP280;62384;53.600;10.040;2023-01-10T03:46:03;11006.53;;;6.77
74043;BMP280;62384;53.600;10.040;2023-01-10T03:48:33;10675.47;;;6.73
74043;BMP280;62384;53.600;10.040;2023-01-10T03:51:02;10344.47;;;6.68
74043;BMP280;62384;53.600;10.040;2023-01-10T03:53:30;10344.06;;;6.61
74043;BMP280;62384;53.600;10.040;2023-01-10T03:55:55;10013.03;;;6.54
74043;BMP280;62384;53.600;10.040;2023-01-10T03:58:21;8691.00;;;6.51
74043;BMP280;62384;53.600;10.040;2023-01-10T04:00:47;8690.72;;;6.43
74043;BMP280;62384;53.600;10.040;2023-01-10T04:03:12;8030.25;;;6.48
74043;BMP280;62384;53.600;10.040;2023-01-10T04:05:37;7369.66;;;6.41
74043;BMP280;62384;53.600;10.040;2023-01-10T04:08:03;7369.66;;;6.43
74043;BMP280;62384;53.600;10.040;2023-01-10T04:10:28;7369.63;;;6.40
74043;BMP280;62384;53.600;10.040;2023-01-10T04:12:54;7369.63;;;6.39
74043;BMP280;62384;53.600;10.040;2023-01-10T04:15:20;7369.59;;;6.37
74043;BMP280;62384;53.600;10.040;2023-01-10T04:17:46;6379.38;;;6.30
74043;BMP280;62384;53.600;10.040;2023-01-10T04:20:13;6379.38;;;6.29
74043;BMP280;62384;53.600;10.040;2023-01-10T04:22:38;6379.38;;;6.27
74043;BMP280;62384;53.600;10.040;2023-01-10T04:25:03;7039.44;;;6.29
74043;BMP280;62384;53.600;10.040;2023-01-10T04:27:29;7369.53;;;6.29
74043;BMP280;62384;53.600;10.040;2023-01-10T04:29:54;7369.41;;;6.19
74043;BMP280;62384;53.600;10.040;2023-01-10T04:32:19;7039.41;;;6.25
74043;BMP280;62384;53.600;10.040;2023-01-10T04:34:44;6709.38;;;6.27
74043;BMP280;62384;53.600;10.040;2023-01-10T04:37:10;7039.44;;;6.31
74043;BMP280;62384;53.600;10.040;2023-01-10T04:39:35;7699.81;;;6.38
74043;BMP280;62384;53.600;10.040;2023-01-10T04:42:00;8360.31;;;6.40
74043;BMP280;62384;53.600;10.040;2023-01-10T04:44:26;8690.75;;;6.43
74043;BMP280;62384;53.600;10.040;2023-01-10T04:46:51;8360.25;;;6.37
74043;BMP280;62384;53.600;10.040;2023-01-10T04:49:16;8030.09;;;6.41
74043;BMP280;62384;53.600;10.040;2023-01-10T04:51:41;8360.47;;;6.45
74043;BMP280;62384;53.600;10.040;2023-01-10T04:54:07;9021.25;;;6.47
74043;BMP280;62384;53.600;10.040;2023-01-10T04:56:32;8690.63;;;6.39
74043;BMP280;62384;53.600;10.040;2023-01-10T04:58:57;9021.16;;;6.44
74043;BMP280;62384;53.600;10.040;2023-01-10T05:01:24;9021.41;;;6.51
74043;BMP280;62384;53.600;10.040;2023-01-10T05:03:52;10013.00;;;6.53
74043;BMP280;62384;53.600;10.040;2023-01-10T05:06:19;9682.38;;;6.52
74043;BMP280;62384;53.600;10.040;2023-01-10T05:08:45;9682.06;;;6.45
74043;BMP280;62384;53.600;10.040;2023-01-10T05:11:11;10343.88;;;6.58
74043;BMP280;62384;53.600;10.040;2023-01-10T05:13:37;11005.28;;;6.59
74043;BMP280;62384;53.600;10.040;2023-01-10T05:16:03;10674.44;;;6.57
74043;BMP280;62384;53.600;10.040;2023-01-10T05:18:31;10674.81;;;6.63
74043;BMP280;62384;53.600;10.040;2023-01-10T05:21:01;11005.50;;;6.62
74043;BMP280;62384;53.600;10.040;2023-01-10T05:23:27;10343.59;;;6.53
74043;BMP280;62384;53.600;10.040;2023-01-10T05:25:53;10343.88;;;6.58
74043;BMP280;62384;53.600;10.040;2023-01-10T05:28:19;9351.97;;;6.53
74043;BMP280;62384;53.600;10.040;2023-01-10T05:30:44;10343.94;;;6.59
74043;BMP280;62384;53.600;10.040;2023-01-10T05:33:09;10013.31;;;6.59
74043;BMP280;62384;53.600;10.040;2023-01-10T05:35:35;10013.03;;;6.54
74043;BMP280;62384;53.600;10.040;2023-01-10T05:38:00;10013.41;;;6.61
74043;BMP280;62384;53.600;10.040;2023-01-10T05:40:25;10344.00;;;6.60
74043;BMP280;62384;53.600;10.040;2023-01-10T05:42:51;11336.47;;;6.65
74043;BMP280;62384;53.600;10.040;2023-01-10T05:45:16;11667.31;;;6.66
74043;BMP280;62384;53.600;10.040;2023-01-10T05:47:41;12329.44;;;6.70
74043;BMP280;62384;53.600;10.040;2023-01-10T05:50:08;13322.09;;;6.67
74043;BMP280;62384;53.600;10.040;2023-01-10T05:52:33;11997.97;;;6.63
74043;BMP280;62384;53.600;10.040;2023-01-10T05:54:58;11997.34;;;6.56
74043;BMP280;62384;53.600;10.040;2023-01-10T05:57:23;11666.47;;;6.55
74043;BMP280;62384;53.600;10.040;2023-01-10T05:59:50;11997.00;;;6.52
74043;BMP280;62384;53.600;10.040;2023-01-10T06:02:15;11995.41;;;6.34
74043;BMP280;62384;53.600;10.040;2023-01-10T06:04:41;11335.03;;;6.46
74043;BMP280;62384;53.600;10.040;2023-01-10T06:07:06;12327.00;;;6.43
74043;BMP280;62384;53.600;10.040;2023-01-10T06:09:31;11334.34;;;6.37
74043;BMP280;62384;53.600;10.040;2023-01-10T06:11:57;11334.34;;;6.37
74043;BMP280;62384;53.600;10.040;2023-01-10T06:14:22;11334.34;;;6.37
74043;BMP280;62384;53.600;10.040;2023-01-10T06:16:48;11334.34;;;6.37
74043;BMP280;62384;53.600;10.040;2023-01-10T06:19:13;10672.88;;;6.33
74043;BMP280;62384;53.600;10.040;2023-01-10T06:21:39;10342.03;;;6.27
74043;BMP280;62384;53.600;10.040;2023-01-10T06:24:04;10011.81;;;6.31
74043;BMP280;62384;53.600;10.040;2023-01-10T06:26:30;11002.62;;;6.21
74043;BMP280;62384;53.600;10.040;2023-01-10T06:28:55;11003.03;;;6.27
74043;BMP280;62384;53.600;10.040;2023-01-10T06:31:22;9680.69;;;6.16
74043;BMP280;62384;53.600;10.040;2023-01-10T06:33:49;10672.06;;;6.20
74043;BMP280;62384;53.600;10.040;2023-01-10T06:36:19;11333.69;;;6.28
74043;BMP280;62384;53.600;10.040;2023-01-10T06:38:44;11664.19;;;6.27
74043;BMP280;62384;53.600;10.040;2023-01-10T06:41:10;11994.50;;;6.23
74043;BMP280;62384;53.600;10.040;2023-01-10T06:43:44;11664.16;;;6.27
74043;BMP280;62384;53.600;10.040;2023-01-10T06:46:10;11333.34;;;6.24
74043;BMP280;62384;53.600;10.040;2023-01-10T06:48:36;11333.09;;;6.20
74043;BMP280;62384;53.600;10.040;2023-01-10T06:51:05;11002.50;;;6.19
74043;BMP280;62384;53.600;10.040;2023-01-10T06:53:31;10671.72;;;6.14
74043;BMP280;62384;53.600;10.040;2023-01-10T06:55:56;11002.38;;;6.17
74043;BMP280;62384;53.600;10.040;2023-01-10T06:58:22;10671.91;;;6.17
74043;BMP280;62384;53.600;10.040;2023-01-10T07:00:48;10671.53;;;6.12
74043;BMP280;62384;53.600;10.040;2023-01-10T07:03:13;11002.00;;;6.12
74043;BMP280;62384;53.600;10.040;2023-01-10T07:05:39;11002.13;;;6.14
74043;BMP280;62384;53.600;10.040;2023-01-10T07:08:04;11663.41;;;6.17
74043;BMP280;62384;53.600;10.040;2023-01-10T07:10:29;11993.97;;;6.17
74043;BMP280;62384;53.600;10.040;2023-01-10T07:12:55;12324.94;;;6.20
74043;BMP280;62384;53.600;10.040;2023-01-10T07:15:20;12986.44;;;6.22
74043;BMP280;62384;53.600;10.040;2023-01-10T07:17:46;13648.59;;;6.27
74043;BMP280;62384;53.600;10.040;2023-01-10T07:20:11;13317.81;;;6.27
74043;BMP280;62384;53.600;10.040;2023-01-10T07:22:37;13648.66;;;6.27
74043;BMP280;62384;53.600;10.040;2023-01-10T07:25:04;14309.53;;;6.19
74043;BMP280;62384;53.600;10.040;2023-01-10T07:27:30;13978.72;;;6.20
74043;BMP280;62384;53.600;10.040;2023-01-10T07:29:56;13979.53;;;6.27
74043;BMP280;62384;53.600;10.040;2023-01-10T07:32:22;14641.38;;;6.27
74043;BMP280;62384;53.600;10.040;2023-01-10T07:34:50;14972.63;;;6.29
74043;BMP280;62384;53.600;10.040;2023-01-10T07:37:16;15303.47;;;6.27
74043;BMP280;62384;53.600;10.040;2023-01-10T07:39:41;14971.75;;;6.22
74043;BMP280;62384;53.600;10.040;2023-01-10T07:42:08;14309.84;;;6.22
74043;BMP280;62384;53.600;10.040;2023-01-10T07:44:34;13978.06;;;6.14
74043;BMP280;62384;53.600;10.040;2023-01-10T07:46:59;12985.38;;;6.11
74043;BMP280;62384;53.600;10.040;2023-01-10T07:49:24;13316.91;;;6.18
74043;BMP280;62384;53.600;10.040;2023-01-10T07:51:50;13647.91;;;6.20
74043;BMP280;62384;53.600;10.040;2023-01-10T07:54:15;13979.06;;;6.23
74043;BMP280;62384;53.600;10.040;2023-01-10T07:56:40;14642.47;;;6.35
74043;BMP280;62384;53.600;10.040;2023-01-10T07:59:05;15636.47;;;6.40
74043;BMP280;62384;53.600;10.040;2023-01-10T08:01:31;16629.91;;;6.39
74043;BMP280;62384;53.600;10.040;2023-01-10T08:03:56;16958.69;;;6.24
74043;BMP280;62384;53.600;10.040;2023-01-10T08:06:22;17958.22;;;6.54
74043;BMP280;62384;53.600;10.040;2023-01-10T08:08:48;18287.13;;;6.40
74043;BMP280;62384;53.600;10.040;2023-01-10T08:11:13;18954.63;;;6.62
74043;BMP280;62384;53.600;10.040;2023-01-10T08:13:38;19286.75;;;6.64
74043;BMP280;62384;53.600;10.040;2023-01-10T08:16:05;19288.19;;;6.71
74043;BMP280;62384;53.600;10.040;2023-01-10T08:18:31;20616.66;;;6.76
74043;BMP280;62384;53.600;10.040;2023-01-10T08:20:57;21944.38;;;6.74
74043;BMP280;62384;53.600;10.040;2023-01-10T08:23:22;22277.91;;;6.79
74043;BMP280;62384;53.600;10.040;2023-01-10T08:25:48;22279.81;;;6.87
74043;BMP280;62384;53.600;10.040;2023-01-10T08:28:14;23609.75;;;6.90
74043;BMP280;62384;53.600;10.040;2023-01-10T08:30:39;22944.63;;;6.88
74043;BMP280;62384;53.600;10.040;2023-01-10T08:33:06;23943.59;;;6.95
74043;BMP280;62384;53.600;10.040;2023-01-10T08:35:37;25606.59;;;6.95
74043;BMP280;62384;53.600;10.040;2023-01-10T08:38:02;25273.50;;;6.94
74043;BMP280;62384;53.600;10.040;2023-01-10T08:40:28;25939.94;;;6.97
74043;BMP280;62384;53.600;10.040;2023-01-10T08:43:04;28269.13;;;6.95
74043;BMP280;62384;53.600;10.040;2023-01-10T08:45:30;28271.06;;;7.00
74043;BMP280;62384;53.600;10.040;2023-01-10T08:47:55;27603.88;;;6.97
74043;BMP280;62384;53.600;10.040;2023-01-10T08:50:21;28939.38;;;7.06
74043;BMP280;62384;53.600;10.040;2023-01-10T08:52:47;29605.53;;;7.06
74043;BMP280;62384;53.600;10.040;2023-01-10T08:55:12;29936.88;;;7.01
74043;BMP280;62384;53.600;10.040;2023-01-10T08:57:38;28605.19;;;7.03
74043;BMP280;62384;53.600;10.040;2023-01-10T09:00:04;29274.00;;;7.10
74043;BMP280;62384;53.600;10.040;2023-01-10T09:02:30;29939.34;;;7.07
74043;BMP280;62384;53.600;10.040;2023-01-10T09:04:56;29607.44;;;7.11
74043;BMP280;62384;53.600;10.040;2023-01-10T09:07:21;31608.63;;;7.13
74043;BMP280;62384;53.600;10.040;2023-01-10T09:09:47;31604.94;;;7.04
74043;BMP280;62384;53.600;10.040;2023-01-10T09:12:12;30938.72;;;7.06
74043;BMP280;62384;53.600;10.040;2023-01-10T09:14:56;31609.25;;;7.15
74043;BMP280;62384;53.600;10.040;2023-01-10T09:17:22;32611.22;;;7.18
74043;BMP280;62384;53.600;10.040;2023-01-10T09:19:48;33279.44;;;7.20
74043;BMP280;62384;53.600;10.040;2023-01-10T09:22:13;33615.63;;;7.25
74043;BMP280;62384;53.600;10.040;2023-01-10T09:24:38;33614.06;;;7.22
74043;BMP280;62384;53.600;10.040;2023-01-10T09:27:04;34616.06;;;7.23
74043;BMP280;62384;53.600;10.040;2023-01-10T09:29:29;33281.41;;;7.24
74043;BMP280;62384;53.600;10.040;2023-01-10T09:31:54;34616.06;;;7.23
74043;BMP280;62384;53.600;10.040;2023-01-10T09:34:20;34285.81;;;7.31
74043;BMP280;62384;53.600;10.040;2023-01-10T09:36:46;35960.22;;;7.40
74043;BMP280;62384;53.600;10.040;2023-01-10T09:39:12;40974.34;;;7.54
74043;BMP280;62384;53.600;10.040;2023-01-10T09:44:51;40362.16;;;7.49
74043;BMP280;62384;53.600;10.040;2023-01-10T09:53:15;38297.50;;;7.34
74043;BMP280;62384;53.600;10.040;2023-01-10T09:55:45;36626.91;;;7.36
74043;BMP280;62384;53.600;10.040;2023-01-10T09:58:14;36959.66;;;7.33
74043;BMP280;62384;53.600;10.040;2023-01-10T10:00:59;36961.41;;;7.37
74043;BMP280;62384;53.600;10.040;2023-01-10T10:03:42;39682.38;;;7.39
74043;BMP280;62384;53.600;10.040;2023-01-10T10:06:13;38298.28;;;7.36
74043;BMP280;62384;53.600;10.040;2023-01-10T10:08:41;39863.50;;;7.50
74043;BMP280;62384;53.600;10.040;2023-01-10T10:11:10;40789.56;;;7.51
74043;BMP280;62384;53.600;10.040;2023-01-10T10:13:47;40302.91;;;7.26
74043;BMP280;62384;53.600;10.040;2023-01-10T10:16:29;39308.16;;;7.48
74043;BMP280;62384;53.600;10.040;2023-01-10T10:19:08;40110.00;;;7.47
74043;BMP280;62384;53.600;10.040;2023-01-10T10:35:52;39716.88;;;7.40
74043;BMP280;62384;53.600;10.040;2023-01-10T10:38:16;41053.84;;;7.46
74043;BMP280;62384;53.600;10.040;2023-01-10T10:40:45;40356.47;;;7.43
74043;BMP280;62384;53.600;10.040;2023-01-10T10:43:17;39298.78;;;7.30
74043;BMP280;62384;53.600;10.040;2023-01-10T10:45:54;37960.03;;;7.28
74043;BMP280;62384;53.600;10.040;2023-01-10T10:48:26;39930.84;;;7.44
74043;BMP280;62384;53.600;10.040;2023-01-10T10:51:02;40769.88;;;7.48
74043;BMP280;62384;53.600;10.040;2023-01-10T10:53:31;42372.44;;;7.41
74043;BMP280;62384;53.600;10.040;2023-01-10T10:56:05;42425.06;;;7.42
74043;BMP280;62384;53.600;10.040;2023-01-10T10:58:31;43150.31;;;7.42
74043;BMP280;62384;53.600;10.040;2023-01-10T11:00:58;43610.75;;;7.42
74043;BMP280;62384;53.600;10.040;2023-01-10T11:03:39;44412.47;;;7.56
74043;BMP280;62384;53.600;10.040;2023-01-10T11:06:06;45598.25;;;7.58
74043;BMP280;62384;53.600;10.040;2023-01-10T11:08:35;46691.84;;;7.55
74043;BMP280;62384;53.600;10.040;2023-01-10T11:11:02;48111.72;;;7.57
74043;BMP280;62384;53.600;10.040;2023-01-10T11:16:01;49363.28;;;7.61
74043;BMP280;62384;53.600;10.040;2023-01-10T11:18:33;48498.38;;;7.70
74043;BMP280;62384;53.600;10.040;2023-01-10T11:21:13;49958.84;;;7.76
74043;BMP280;62384;53.600;10.040;2023-01-10T11:23:53;50286.19;;;7.78
74043;BMP280;62384;53.600;10.040;2023-01-10T11:26:34;50565.88;;;7.84
74043;BMP280;62384;53.600;10.040;2023-01-10T11:31:48;50737.31;;;7.85
74043;BMP280;62384;53.600;10.040;2023-01-10T11:34:27;49478.09;;;7.75
74043;BMP280;62384;53.600;10.040;2023-01-10T11:39:42;49873.63;;;7.78
74043;BMP280;62384;53.600;10.040;2023-01-10T11:44:53;49397.97;;;7.81
74043;BMP280;62384;53.600;10.040;2023-01-10T11:47:19;49883.16;;;7.84
74043;BMP280;62384;53.600;10.040;2023-01-10T11:49:45;50675.00;;;7.86
74043;BMP280;62384;53.600;10.040;2023-01-10T11:52:24;49863.47;;;7.78
74043;BMP280;62384;53.600;10.040;2023-01-10T11:54:52;48860.25;;;7.81
74043;BMP280;62384;53.600;10.040;2023-01-10T11:57:22;48683.97;;;7.88
74043;BMP280;62384;53.600;10.040;2023-01-10T11:59:53;47723.44;;;7.84
74043;BMP280;62384;53.600;10.040;2023-01-10T12:02:26;48064.03;;;7.91
74043;BMP280;62384;53.600;10.040;2023-01-10T12:04:53;49229.97;;;7.88
74043;BMP280;62384;53.600;10.040;2023-01-10T12:07:19;49476.94;;;7.92
74043;BMP280;62384;53.600;10.040;2023-01-10T12:09:59;48969.22;;;7.91
74043;BMP280;62384;53.600;10.040;2023-01-10T12:12:30;49299.28;;;7.90
74043;BMP280;62384;53.600;10.040;2023-01-10T12:14:57;48969.75;;;7.88
74043;BMP280;62384;53.600;10.040;2023-01-10T12:17:29;48821.78;;;7.98
74043;BMP280;62384;53.600;10.040;2023-01-10T12:20:02;49270.41;;;7.97
74043;BMP280;62384;53.600;10.040;2023-01-10T12:22:32;49923.88;;;7.97
74043;BMP280;62384;53.600;10.040;2023-01-10T12:24:59;49995.09;;;8.08
74043;BMP280;62384;53.600;10.040;2023-01-10T12:27:27;51514.06;;;8.16
74043;BMP280;62384;53.600;10.040;2023-01-10T12:30:33;53458.59;;;8.32
74043;BMP280;62384;53.600;10.040;2023-01-10T12:33:03;53416.63;;;8.18
74043;BMP280;62384;53.600;10.040;2023-01-10T12:35:39;54475.69;;;8.17
74043;BMP280;62384;53.600;10.040;2023-01-10T12:38:24;53351.53;;;8.12
74043;BMP280;62384;53.600;10.040;2023-01-10T12:41:14;53984.19;;;8.21
74043;BMP280;62384;53.600;10.040;2023-01-10T12:44:12;55150.34;;;8.21
74043;BMP280;62384;53.600;10.040;2023-01-10T12:46:44;54761.34;;;8.25
74043;BMP280;62384;53.600;10.040;2023-01-10T12:49:24;55619.84;;;8.32
74043;BMP280;62384;53.600;10.040;2023-01-10T12:51:53;56706.53;;;8.34
74043;BMP280;62384;53.600;10.040;2023-01-10T12:54:22;57813.91;;;8.35
74043;BMP280;62384;53.600;10.040;2023-01-10T12:56:51;57523.41;;;8.41
74043;BMP280;62384;53.600;10.040;2023-01-10T12:59:24;58204.75;;;8.52
74043;BMP280;62384;53.600;10.040;2023-01-10T13:01:53;58556.00;;;8.46
74043;BMP280;62384;53.600;10.040;2023-01-10T13:04:22;59647.25;;;8.43
74043;BMP280;62384;53.600;10.040;2023-01-10T13:06:51;58668.13;;;8.42
74043;BMP280;62384;53.600;10.040;2023-01-10T13:09:21;58445.09;;;8.37
74043;BMP280;62384;53.600;10.040;2023-01-10T13:14:24;59131.44;;;8.32
74043;BMP280;62384;53.600;10.040;2023-01-10T13:16:57;59573.47;;;8.34
74043;BMP280;62384;53.600;10.040;2023-01-10T13:19:28;60347.91;;;8.30
74043;BMP280;62384;53.600;10.040;2023-01-10T13:22:19;62216.28;;;8.45
74043;BMP280;62384;53.600;10.040;2023-01-10T13:24:59;63158.78;;;8.62
74043;BMP280;62384;53.600;10.040;2023-01-10T13:27:30;64120.03;;;8.70
74043;BMP280;62384;53.600;10.040;2023-01-10T13:29:56;64440.88;;;8.60
74043;BMP280;62384;53.600;10.040;2023-01-10T13:32:51;64605.88;;;8.64
74043;BMP280;62384;53.600;10.040;2023-01-10T13:35:20;64285.56;;;8.69
74043;BMP280;62384;53.600;10.040;2023-01-10T13:37:51;65131.38;;;8.74
74043;BMP280;62384;53.600;10.040;2023-01-10T13:40:25;65017.94;;;8.72
74043;BMP280;62384;53.600;10.040;2023-01-10T13:48:40;65614.78;;;8.55
74043;BMP280;62384;53.600;10.040;2023-01-10T13:51:13;65152.97;;;8.58
74043;BMP280;62384;53.600;10.040;2023-01-10T13:53:49;65346.66;;;8.62
74043;BMP280;62384;53.600;10.040;2023-01-10T13:56:39;65099.38;;;8.49
74043;BMP280;62384;53.600;10.040;2023-01-10T14:02:17;64980.22;;;8.46
74043;BMP280;62384;53.600;10.040;2023-01-10T14:05:02;64880.75;;;8.47
74043;BMP280;62384;53.600;10.040;2023-01-10T14:07:49;64651.69;;;8.29
74043;BMP280;62384;53.600;10.040;2023-01-10T14:10:25;64421.19;;;8.31
74043;BMP280;62384;53.600;10.040;2023-01-10T14:12:58;65544.69;;;8.34
74043;BMP280;62384;53.600;10.040;2023-01-10T14:15:42;65097.44;;;8.36
74043;BMP280;62384;53.600;10.040;2023-01-10T14:18:20;65011.19;;;8.37
74043;BMP280;62384;53.600;10.040;2023-01-10T14:20:57;65619.34;;;8.32
74043;BMP280;62384;53.600;10.040;2023-01-10T14:23:30;64857.75;;;8.34
74043;BMP280;62384;53.600;10.040;2023-01-10T14:25:57;65835.53;;;8.32
74043;BMP280;62384;53.600;10.040;2023-01-10T14:28:28;65273.22;;;8.32
74043;BMP280;62384;53.600;10.040;2023-01-10T14:31:03;65031.13;;;8.33
74043;BMP280;62384;53.600;10.040;2023-01-10T14:33:31;65182.47;;;8.37
74043;BMP280;62384;53.600;10.040;2023-01-10T14:36:00;64732.84;;;8.36
74043;BMP280;62384;53.600;10.040;2023-01-10T14:38:30;65931.16;;;8.32
74043;BMP280;62384;53.600;10.040;2023-01-10T14:41:04;65708.69;;;8.32
74043;BMP280;62384;53.600;10.040;2023-01-10T14:43:41;66185.56;;;8.30
74043;BMP280;62384;53.600;10.040;2023-01-10T14:46:13;65892.91;;;8.28
74043;BMP280;62384;53.600;10.040;2023-01-10T14:48:49;66246.53;;;8.28
74043;BMP280;62384;53.600;10.040;2023-01-10T14:53:58;67025.75;;;8.27
74043;BMP280;62384;53.600;10.040;2023-01-10T14:56:38;67377.56;;;8.33
74043;BMP280;62384;53.600;10.040;2023-01-10T14:59:30;67105.56;;;8.28
74043;BMP280;62384;53.600;10.040;2023-01-10T15:04:58;67127.00;;;8.23
74043;BMP280;62384;53.600;10.040;2023-01-10T15:07:26;67251.81;;;8.13
74043;BMP280;62384;53.600;10.040;2023-01-10T15:09:57;67040.56;;;8.18
74043;BMP280;62384;53.600;10.040;2023-01-10T15:12:28;67225.31;;;8.23
74043;BMP280;62384;53.600;10.040;2023-01-10T15:14:59;67506.28;;;8.19
74043;BMP280;62384;53.600;10.040;2023-01-10T15:17:27;67641.88;;;8.25
74043;BMP280;62384;53.600;10.040;2023-01-10T15:19:53;67899.97;;;8.24
74043;BMP280;62384;53.600;10.040;2023-01-10T15:22:39;67998.81;;;8.25
74043;BMP280;62384;53.600;10.040;2023-01-10T15:25:27;68029.03;;;8.23
74043;BMP280;62384;53.600;10.040;2023-01-10T15:27:56;68107.19;;;8.14
74043;BMP280;62384;53.600;10.040;2023-01-10T15:30:28;67409.41;;;8.12
74043;BMP280;62384;53.600;10.040;2023-01-10T15:33:03;67558.56;;;8.10
74043;BMP280;62384;53.600;10.040;2023-01-10T15:35:31;67074.75;;;8.13
74043;BMP280;62384;53.600;10.040;2023-01-10T15:38:02;67396.56;;;8.15